Independence of the Seas — C6WW4 — position and weather

sailwx.info

Track history (hours):
 
Tides and Currents Weather Stations Pressure Air Temp Water Temp Dewpoint Dewpoint Depression Visibility Wind Speed Wind Dir Waves Ship Positions

Independence of the Seas

Last reported at 2018-Sep-24 20:30 UTC. Time now 2018-Sep-24 21:00 UTC.
Position N 36°48' W 009°32'.

Length 339 m; draft 9 m.

Type: Passenger vessel. MMSI: 309374000.

Date/timePositionNaut miles runAvg speedWind from/ knotsBaromVisibWave heightAir tempDewpointWater temp
2018-Sep-24 20:30N 36°48' W 009°32'818.9
2018-Sep-24 20:03N 36°56' W 009°35'119.2
2018-Sep-24 20:00N 36°57' W 009°35'918.9
2018-Sep-24 19:30N 37°06' W 009°38'918.9
2018-Sep-24 19:03N 37°15' W 009°40'118.7
2018-Sep-24 19:00N 37°15' W 009°41'1019.0
2018-Sep-24 18:30N 37°25' W 009°43'920.6
2018-Sep-24 18:03N 37°34' W 009°46'120.9
2018-Sep-24 18:00N 37°35' W 009°46'1020.7
2018-Sep-24 17:30N 37°45' W 009°50'920.6
2018-Sep-24 17:03N 37°54' W 009°52'120.7
2018-Sep-24 17:00N 37°55' W 009°53'1021.1
2018-Sep-24 16:30N 38°05' W 009°56'920.8
2018-Sep-24 16:03N 38°14' W 009°59'120.7
2018-Sep-24 16:00N 38°15' W 009°59'1020.8
2018-Sep-24 15:30N 38°25' W 010°03'920.7
2018-Sep-24 15:03N 38°34' W 010°06'120.8
2018-Sep-24 15:00N 38°35' W 010°06'1021.0
2018-Sep-24 14:30N 38°46' W 010°05'1020.3
2018-Sep-24 14:00N 38°56' W 010°05'918.4
2018-Sep-24 13:30N 39°05' W 010°05'818.3
2018-Sep-24 13:03N 39°13' W 010°05'118.1
2018-Sep-24 13:00N 39°14' W 010°05'918.7
2018-Sep-24 12:30N 39°23' W 010°05'818.7
2018-Sep-24 12:03N 39°32' W 010°06'118.7
2018-Sep-24 12:00N 39°33' W 010°05'918.8
2018-Sep-24 11:30N 39°42' W 010°06'818.8
2018-Sep-24 11:03N 39°51' W 010°06'118.6
2018-Sep-24 11:00N 39°52' W 010°06'918.8
2018-Sep-24 10:30N 40°01' W 010°06'818.5
2018-Sep-24 10:03N 40°09' W 010°06'118.5
2018-Sep-24 10:00N 40°10' W 010°06'918.4
2018-Sep-24 09:30N 40°20' W 010°05'818.8
2018-Sep-24 09:03N 40°28' W 010°05'119.1
2018-Sep-24 09:00N 40°29' W 010°05'1018.8
2018-Sep-24 08:30N 40°38' W 010°04'818.6
2018-Sep-24 08:03N 40°47' W 010°04'118.9
2018-Sep-24 08:00N 40°48' W 010°04'1019.1
2018-Sep-24 07:30N 40°57' W 010°03'1919.0
2018-Sep-24 06:30N 41°16' W 010°03'4417.5
2018-Sep-24 04:00N 42°00' W 010°00'19619.6 020 / 331029.010.8 17.015.319.0
2018-Sep-23 18:00N 45°06' W 008°36'35019.9 030 / 271025.010.8 17.017.016.0
2018-Sep-23 00:25N 49°47' W 003°28'617.8
2018-Sep-23 00:03N 49°50' W 003°19'118.0
2018-Sep-23 00:00N 49°50' W 003°18'918.0
2018-Sep-22 23:31N 49°55' W 003°06'818.1
2018-Sep-22 23:04N 49°59' W 002°55'118.3
2018-Sep-22 23:00N 49°59' W 002°54'918.2
2018-Sep-22 22:30N 50°02' W 002°40'1217.5
2018-Sep-22 21:48N 50°06' W 002°22'4616.3
2018-Sep-22 18:57N 50°27' W 001°17'716.0
2018-Sep-22 18:30N 50°31' W 001°08'716.1
2018-Sep-22 18:03N 50°36' W 000°60'117.9
2018-Sep-22 18:00N 50°37' W 000°60'611.3
2018-Sep-22 17:30N 50°42' W 000°58'715.8
2018-Sep-22 17:03N 50°46' W 001°08'118.7
2018-Sep-22 17:00N 50°46' W 001°09'611.8
2018-Sep-22 16:30N 50°48' W 001°18'4 8.6
2018-Sep-22 16:03N 50°51' W 001°21'0 9.6
2018-Sep-22 16:00N 50°52' W 001°22'3 0.3
2018-Sep-22 04:05N 50°54' W 001°25'0 0.3
2018-Sep-22 04:03N 50°54' W 001°25'0 0.7
2018-Sep-22 04:00N 50°54' W 001°25'3 6.5
2018-Sep-22 03:30N 50°52' W 001°21'4 9.1
2018-Sep-22 03:04N 50°48' W 001°18'111.8
2018-Sep-22 03:00N 50°48' W 001°18'511.0
2018-Sep-22 02:30N 50°46' W 001°10'817.3
2018-Sep-22 02:03N 50°43' W 000°59'113.4
2018-Sep-22 02:00N 50°42' W 000°58'612.4
2018-Sep-22 01:30N 50°36' W 000°60'613.4
2018-Sep-22 01:03N 50°32' W 001°06'113.8
2018-Sep-22 01:00N 50°31' W 001°07'713.7
2018-Sep-22 00:29N 50°28' W 001°17'6314.1
2018-Sep-21 20:01N 49°54' W 002°40'3116.0
2018-Sep-21 20:00N 49°54' W 002°36'726.6 280 / 221025.0 5.4
2018-Sep-21 19:44N 49°53' W 002°46'315.4
2018-Sep-21 19:30N 49°52' W 002°52'715.3
2018-Sep-21 19:03N 49°49' W 003°01'115.1
2018-Sep-21 19:00N 49°48' W 003°02'715.3
2018-Sep-21 18:30N 49°45' W 003°13'8017.6
2018-Sep-21 14:00N 49°00' W 004°54'622.6 270 / 251020.1 5.4 15.015.015.0
2018-Sep-21 13:44N 49°01' W 005°02'518.9
2018-Sep-21 13:29N 48°59' W 005°09'819.0
2018-Sep-21 13:03N 48°55' W 005°20'219.3
2018-Sep-21 12:58N 48°54' W 005°22'918.8
2018-Sep-21 12:30N 48°49' W 005°33'4718.5
2018-Sep-21 09:58N 48°06' W 006°01'54413.9
2018-Sep-19 18:48N 40°01' W 011°45'518.7
2018-Sep-19 18:30N 39°56' W 011°48'818.4
2018-Sep-19 18:03N 39°49' W 011°53'118.4
2018-Sep-19 18:00N 39°48' W 011°54'918.4
2018-Sep-19 17:30N 39°40' W 011°59'818.2
2018-Sep-19 17:03N 39°33' W 012°04'117.6
2018-Sep-19 17:00N 39°32' W 012°05'918.1
2018-Sep-19 16:30N 39°24' W 012°10'1018.4
2018-Sep-19 15:59N 39°15' W 012°16'1418.3
2018-Sep-19 15:14N 39°03' W 012°24'2318.5
2018-Sep-19 14:00N 38°43' W 012°37'918.8
2018-Sep-19 13:30N 38°35' W 012°43'918.7
2018-Sep-19 13:01N 38°27' W 012°48'019.1
2018-Sep-19 13:00N 38°26' W 012°49'918.8
2018-Sep-19 12:30N 38°18' W 012°54'1018.7
2018-Sep-19 11:57N 38°09' W 012°60'7218.3
2018-Sep-19 08:00N 37°05' W 013°42'  
2018-Sep-16 19:00N 28°38' W 016°05'612.0
2018-Sep-16 18:30N 28°32' W 016°05'512.1
2018-Sep-16 18:03N 28°29' W 016°10'111.5
2018-Sep-16 18:00N 28°29' W 016°11'3 6.4
2018-Sep-16 17:30N 28°29' W 016°14'0 0.4
2018-Sep-16 17:02N 28°28' W 016°14'0 0.0
2018-Sep-16 16:59N 28°28' W 016°14'0 0.0
2018-Sep-16 16:29N 28°28' W 016°14'0 0.0
2018-Sep-16 16:02N 28°28' W 016°14'0 0.0
2018-Sep-16 15:59N 28°28' W 016°14'0 0.0
2018-Sep-16 15:29N 28°28' W 016°14'0 0.0
2018-Sep-16 15:02N 28°28' W 016°14'0 0.0
2018-Sep-16 14:59N 28°28' W 016°14'0 0.0
2018-Sep-16 14:29N 28°28' W 016°14'0 0.0
2018-Sep-16 13:29N 28°28' W 016°14'0 0.0
2018-Sep-16 13:02N 28°28' W 016°14'0 0.0
2018-Sep-16 12:59N 28°28' W 016°14'0 0.0
2018-Sep-16 12:29N 28°28' W 016°14'0 0.0
2018-Sep-16 12:02N 28°28' W 016°14'0 0.0
2018-Sep-16 11:59N 28°28' W 016°14'0 0.0
2018-Sep-16 11:29N 28°28' W 016°14'0 0.0
2018-Sep-16 11:02N 28°28' W 016°14'0 0.0
2018-Sep-16 10:59N 28°28' W 016°14'0 0.0
2018-Sep-16 10:29N 28°28' W 016°14'0 0.0
2018-Sep-16 10:02N 28°28' W 016°14'0 0.0
2018-Sep-16 09:59N 28°28' W 016°14'0 0.0
2018-Sep-16 09:29N 28°28' W 016°14'0 0.0
2018-Sep-16 09:02N 28°28' W 016°14'0 0.0
2018-Sep-16 08:59N 28°28' W 016°14'0 0.0
2018-Sep-16 08:29N 28°28' W 016°14'0 0.0
2018-Sep-16 08:02N 28°28' W 016°14'0 0.0
2018-Sep-16 07:59N 28°28' W 016°14'0 0.0
2018-Sep-16 07:29N 28°28' W 016°14'0 0.0
2018-Sep-16 07:02N 28°28' W 016°14'0 0.0
2018-Sep-16 06:59N 28°28' W 016°14'0 0.0
2018-Sep-16 06:29N 28°28' W 016°14'0 0.1
2018-Sep-16 06:03N 28°28' W 016°14'0 1.7
2018-Sep-16 06:00N 28°29' W 016°14'3 6.3
2018-Sep-16 05:30N 28°27' W 016°11'4 9.1
2018-Sep-16 05:03N 28°25' W 016°07'0 8.8
2018-Sep-16 05:00N 28°25' W 016°07'5 9.2
2018-Sep-16 04:30N 28°28' W 016°02'4 9.3
2018-Sep-16 04:03N 28°31' W 015°59'0 9.1
2018-Sep-16 04:00N 28°31' W 015°59'4 8.7
2018-Sep-16 03:30N 28°35' W 015°55'4 8.8
2018-Sep-16 03:03N 28°38' W 015°53'0 8.8
2018-Sep-16 03:00N 28°38' W 015°52'5 9.2
2018-Sep-16 02:30N 28°41' W 015°49'4 8.7
2018-Sep-16 02:03N 28°40' W 015°44'0 8.9
2018-Sep-16 02:00N 28°40' W 015°44'4 8.9
2018-Sep-16 01:30N 28°38' W 015°40'4 9.4
2018-Sep-16 01:03N 28°35' W 015°36'0 9.4
2018-Sep-16 01:00N 28°35' W 015°35'5 9.4
2018-Sep-16 00:30N 28°32' W 015°31'4 9.3
2018-Sep-16 00:03N 28°30' W 015°27'0 9.2
2018-Sep-16 00:00N 28°30' W 015°26'5 9.4
2018-Sep-15 23:29N 28°27' W 015°22'510.4
2018-Sep-15 23:03N 28°24' W 015°18'010.4
2018-Sep-15 23:00N 28°24' W 015°17'5 9.7
2018-Sep-15 22:30N 28°20' W 015°15'510.2
2018-Sep-15 22:03N 28°15' W 015°15'010.3
2018-Sep-15 22:00N 28°15' W 015°15'510.2
2018-Sep-15 21:30N 28°09' W 015°14'1 2.3
2018-Sep-15 21:02N 28°08' W 015°15'0 1.7
2018-Sep-15 21:00N 28°08' W 015°15'1 1.9
2018-Sep-15 20:30N 28°09' W 015°16'1 2.0
2018-Sep-15 20:03N 28°09' W 015°17'0 2.1
2018-Sep-15 20:00N 28°09' W 015°17'1 2.1
2018-Sep-15 19:30N 28°09' W 015°18'1 2.2
2018-Sep-15 19:03N 28°09' W 015°19'0 2.2
2018-Sep-15 19:00N 28°09' W 015°19'1 1.9
2018-Sep-15 18:30N 28°10' W 015°20'2 4.7
2018-Sep-15 18:03N 28°08' W 015°22'112.2
2018-Sep-15 18:00N 28°08' W 015°22'3 5.6
2018-Sep-15 17:30N 28°08' W 015°25'0 0.6
2018-Sep-15 17:00N 28°08' W 015°26'0 0.0
2018-Sep-15 16:30N 28°08' W 015°26'0 0.0
2018-Sep-15 16:03N 28°08' W 015°26'0 0.0
2018-Sep-15 16:00N 28°08' W 015°26'0 0.0
2018-Sep-15 15:30N 28°08' W 015°26'0 0.0
2018-Sep-15 15:03N 28°08' W 015°26'0 0.0
2018-Sep-15 14:30N 28°08' W 015°26'0 0.0
2018-Sep-15 14:00N 28°08' W 015°26'0 0.0
2018-Sep-15 13:30N 28°08' W 015°26'0 0.0
2018-Sep-15 13:03N 28°08' W 015°26'0 0.0
2018-Sep-15 13:00N 28°08' W 015°26'0 0.0
2018-Sep-15 12:30N 28°08' W 015°26'0 0.0
2018-Sep-15 12:03N 28°08' W 015°26'0 0.0
2018-Sep-15 11:51N 28°08' W 015°26'0 0.0
2018-Sep-15 11:21N 28°08' W 015°26'0 0.0
2018-Sep-15 10:51N 28°08' W 015°26'0 0.0
2018-Sep-15 10:21N 28°08' W 015°26'0 0.0
2018-Sep-15 09:54N 28°08' W 015°26'0 0.0
2018-Sep-15 09:24N 28°08' W 015°26'0 0.0
2018-Sep-15 08:54N 28°08' W 015°26'0 0.0
2018-Sep-15 08:24N 28°08' W 015°26'0 0.0
2018-Sep-15 07:51N 28°08' W 015°26'0 0.0
2018-Sep-15 07:27N 28°08' W 015°26'0 0.0
2018-Sep-15 07:03N 28°08' W 015°25'0 0.5
2018-Sep-15 07:00N 28°08' W 015°25'3 5.2
2018-Sep-15 06:31N 28°07' W 015°23'4 9.1
2018-Sep-15 06:03N 28°10' W 015°20'0 9.1
2018-Sep-15 06:01N 28°11' W 015°20'5 8.9
2018-Sep-15 05:29N 28°15' W 015°17'4 8.6
2018-Sep-15 05:03N 28°18' W 015°14'0 8.9
2018-Sep-15 05:00N 28°18' W 015°14'4 8.5
2018-Sep-15 04:30N 28°21' W 015°11'4 8.6
2018-Sep-15 04:02N 28°24' W 015°07'0 8.7
2018-Sep-15 04:00N 28°24' W 015°07'5 8.8
2018-Sep-15 03:28N 28°26' W 015°02'4 8.9
2018-Sep-15 03:03N 28°28' W 014°59'0 9.0
2018-Sep-15 03:00N 28°28' W 014°58'4 9.0
2018-Sep-15 02:30N 28°30' W 014°54'4 8.9
2018-Sep-15 02:03N 28°32' W 014°50'0 8.9
2018-Sep-15 02:00N 28°32' W 014°49'4 8.8
2018-Sep-15 01:30N 28°34' W 014°45'4 8.7
2018-Sep-15 01:04N 28°36' W 014°41'1 8.6
2018-Sep-15 01:00N 28°36' W 014°40'5 8.8
2018-Sep-15 00:28N 28°38' W 014°35'4 8.9
2018-Sep-15 00:03N 28°40' W 014°32'1 8.9
2018-Sep-14 23:59N 28°40' W 014°31'5 8.8
2018-Sep-14 23:22N 28°42' W 014°25'3 8.7
2018-Sep-14 23:02N 28°44' W 014°23'0 8.7
2018-Sep-14 23:00N 28°44' W 014°22'4 8.8
2018-Sep-14 22:30N 28°45' W 014°18'4 8.7
2018-Sep-14 22:02N 28°46' W 014°13'1 8.6
2018-Sep-14 21:58N 28°46' W 014°12'4 8.5
2018-Sep-14 21:30N 28°47' W 014°08'4 8.9
2018-Sep-14 21:03N 28°48' W 014°04'0 9.0
2018-Sep-14 21:00N 28°48' W 014°03'4 9.0
2018-Sep-14 20:31N 28°48' W 013°58'  
Track history (hours):
 
Tides and Currents Weather Stations Pressure Air Temp Water Temp Dewpoint Dewpoint Depression Visibility Wind Speed Wind Dir Waves Ship Positions

Independence of the Seas

Last reported at 2018-Sep-24 20:30 UTC. Time now 2018-Sep-24 21:00 UTC.
Position N 36°48' W 009°32'.

Length 339 m; draft 9 m.

Type: Passenger vessel. MMSI: 309374000.

Date/timePositionNaut miles runAvg speedWind from/ knotsBaromVisibWave heightAir tempDewpointWater temp
2018-Sep-24 20:30N 36°48' W 009°32'818.9
2018-Sep-24 20:03N 36°56' W 009°35'119.2
2018-Sep-24 20:00N 36°57' W 009°35'918.9
2018-Sep-24 19:30N 37°06' W 009°38'918.9
2018-Sep-24 19:03N 37°15' W 009°40'118.7
2018-Sep-24 19:00N 37°15' W 009°41'1019.0
2018-Sep-24 18:30N 37°25' W 009°43'920.6
2018-Sep-24 18:03N 37°34' W 009°46'120.9
2018-Sep-24 18:00N 37°35' W 009°46'1020.7
2018-Sep-24 17:30N 37°45' W 009°50'920.6
2018-Sep-24 17:03N 37°54' W 009°52'120.7
2018-Sep-24 17:00N 37°55' W 009°53'1021.1
2018-Sep-24 16:30N 38°05' W 009°56'920.8
2018-Sep-24 16:03N 38°14' W 009°59'120.7
2018-Sep-24 16:00N 38°15' W 009°59'1020.8
2018-Sep-24 15:30N 38°25' W 010°03'920.7
2018-Sep-24 15:03N 38°34' W 010°06'120.8
2018-Sep-24 15:00N 38°35' W 010°06'1021.0
2018-Sep-24 14:30N 38°46' W 010°05'1020.3
2018-Sep-24 14:00N 38°56' W 010°05'918.4
2018-Sep-24 13:30N 39°05' W 010°05'818.3
2018-Sep-24 13:03N 39°13' W 010°05'118.1
2018-Sep-24 13:00N 39°14' W 010°05'918.7
2018-Sep-24 12:30N 39°23' W 010°05'818.7
2018-Sep-24 12:03N 39°32' W 010°06'118.7
2018-Sep-24 12:00N 39°33' W 010°05'918.8
2018-Sep-24 11:30N 39°42' W 010°06'818.8
2018-Sep-24 11:03N 39°51' W 010°06'118.6
2018-Sep-24 11:00N 39°52' W 010°06'918.8
2018-Sep-24 10:30N 40°01' W 010°06'818.5
2018-Sep-24 10:03N 40°09' W 010°06'118.5
2018-Sep-24 10:00N 40°10' W 010°06'918.4
2018-Sep-24 09:30N 40°20' W 010°05'818.8
2018-Sep-24 09:03N 40°28' W 010°05'119.1
2018-Sep-24 09:00N 40°29' W 010°05'1018.8
2018-Sep-24 08:30N 40°38' W 010°04'818.6
2018-Sep-24 08:03N 40°47' W 010°04'118.9
2018-Sep-24 08:00N 40°48' W 010°04'1019.1
2018-Sep-24 07:30N 40°57' W 010°03'1919.0
2018-Sep-24 06:30N 41°16' W 010°03'4417.5
2018-Sep-24 04:00N 42°00' W 010°00'19619.6 020 / 331029.010.8 17.015.319.0
2018-Sep-23 18:00N 45°06' W 008°36'35019.9 030 / 271025.010.8 17.017.016.0
2018-Sep-23 00:25N 49°47' W 003°28'617.8
2018-Sep-23 00:03N 49°50' W 003°19'118.0
2018-Sep-23 00:00N 49°50' W 003°18'918.0
2018-Sep-22 23:31N 49°55' W 003°06'818.1
2018-Sep-22 23:04N 49°59' W 002°55'118.3
2018-Sep-22 23:00N 49°59' W 002°54'918.2
2018-Sep-22 22:30N 50°02' W 002°40'1217.5
2018-Sep-22 21:48N 50°06' W 002°22'4616.3
2018-Sep-22 18:57N 50°27' W 001°17'716.0
2018-Sep-22 18:30N 50°31' W 001°08'716.1
2018-Sep-22 18:03N 50°36' W 000°60'117.9
2018-Sep-22 18:00N 50°37' W 000°60'611.3
2018-Sep-22 17:30N 50°42' W 000°58'715.8
2018-Sep-22 17:03N 50°46' W 001°08'118.7
2018-Sep-22 17:00N 50°46' W 001°09'611.8
2018-Sep-22 16:30N 50°48' W 001°18'4 8.6
2018-Sep-22 16:03N 50°51' W 001°21'0 9.6
2018-Sep-22 16:00N 50°52' W 001°22'3 0.3
2018-Sep-22 04:05N 50°54' W 001°25'0 0.3
2018-Sep-22 04:03N 50°54' W 001°25'0 0.7
2018-Sep-22 04:00N 50°54' W 001°25'3 6.5
2018-Sep-22 03:30N 50°52' W 001°21'4 9.1
2018-Sep-22 03:04N 50°48' W 001°18'111.8
2018-Sep-22 03:00N 50°48' W 001°18'511.0
2018-Sep-22 02:30N 50°46' W 001°10'817.3
2018-Sep-22 02:03N 50°43' W 000°59'113.4
2018-Sep-22 02:00N 50°42' W 000°58'612.4
2018-Sep-22 01:30N 50°36' W 000°60'613.4
2018-Sep-22 01:03N 50°32' W 001°06'113.8
2018-Sep-22 01:00N 50°31' W 001°07'713.7
2018-Sep-22 00:29N 50°28' W 001°17'6314.1
2018-Sep-21 20:01N 49°54' W 002°40'3116.0
2018-Sep-21 20:00N 49°54' W 002°36'726.6 280 / 221025.0 5.4
2018-Sep-21 19:44N 49°53' W 002°46'315.4
2018-Sep-21 19:30N 49°52' W 002°52'715.3
2018-Sep-21 19:03N 49°49' W 003°01'115.1
2018-Sep-21 19:00N 49°48' W 003°02'715.3
2018-Sep-21 18:30N 49°45' W 003°13'8017.6
2018-Sep-21 14:00N 49°00' W 004°54'622.6 270 / 251020.1 5.4 15.015.015.0
2018-Sep-21 13:44N 49°01' W 005°02'518.9
2018-Sep-21 13:29N 48°59' W 005°09'819.0
2018-Sep-21 13:03N 48°55' W 005°20'219.3
2018-Sep-21 12:58N 48°54' W 005°22'918.8
2018-Sep-21 12:30N 48°49' W 005°33'4718.5
2018-Sep-21 09:58N 48°06' W 006°01'54413.9
2018-Sep-19 18:48N 40°01' W 011°45'518.7
2018-Sep-19 18:30N 39°56' W 011°48'818.4
2018-Sep-19 18:03N 39°49' W 011°53'118.4
2018-Sep-19 18:00N 39°48' W 011°54'918.4
2018-Sep-19 17:30N 39°40' W 011°59'818.2
2018-Sep-19 17:03N 39°33' W 012°04'117.6
2018-Sep-19 17:00N 39°32' W 012°05'918.1
2018-Sep-19 16:30N 39°24' W 012°10'1018.4
2018-Sep-19 15:59N 39°15' W 012°16'1418.3
2018-Sep-19 15:14N 39°03' W 012°24'2318.5
2018-Sep-19 14:00N 38°43' W 012°37'918.8
2018-Sep-19 13:30N 38°35' W 012°43'918.7
2018-Sep-19 13:01N 38°27' W 012°48'019.1
2018-Sep-19 13:00N 38°26' W 012°49'918.8
2018-Sep-19 12:30N 38°18' W 012°54'1018.7
2018-Sep-19 11:57N 38°09' W 012°60'7218.3
2018-Sep-19 08:00N 37°05' W 013°42'  
2018-Sep-16 19:00N 28°38' W 016°05'612.0
2018-Sep-16 18:30N 28°32' W 016°05'512.1
2018-Sep-16 18:03N 28°29' W 016°10'111.5
2018-Sep-16 18:00N 28°29' W 016°11'3 6.4
2018-Sep-16 17:30N 28°29' W 016°14'0 0.4
2018-Sep-16 17:02N 28°28' W 016°14'0 0.0
2018-Sep-16 16:59N 28°28' W 016°14'0 0.0
2018-Sep-16 16:29N 28°28' W 016°14'0 0.0
2018-Sep-16 16:02N 28°28' W 016°14'0 0.0
2018-Sep-16 15:59N 28°28' W 016°14'0 0.0
2018-Sep-16 15:29N 28°28' W 016°14'0 0.0
2018-Sep-16 15:02N 28°28' W 016°14'0 0.0
2018-Sep-16 14:59N 28°28' W 016°14'0 0.0
2018-Sep-16 14:29N 28°28' W 016°14'0 0.0
2018-Sep-16 13:29N 28°28' W 016°14'0 0.0
2018-Sep-16 13:02N 28°28' W 016°14'0 0.0
2018-Sep-16 12:59N 28°28' W 016°14'0 0.0
2018-Sep-16 12:29N 28°28' W 016°14'0 0.0
2018-Sep-16 12:02N 28°28' W 016°14'0 0.0
2018-Sep-16 11:59N 28°28' W 016°14'0 0.0
2018-Sep-16 11:29N 28°28' W 016°14'0 0.0
2018-Sep-16 11:02N 28°28' W 016°14'0 0.0
2018-Sep-16 10:59N 28°28' W 016°14'0 0.0
2018-Sep-16 10:29N 28°28' W 016°14'0 0.0
2018-Sep-16 10:02N 28°28' W 016°14'0 0.0
2018-Sep-16 09:59N 28°28' W 016°14'0 0.0
2018-Sep-16 09:29N 28°28' W 016°14'0 0.0
2018-Sep-16 09:02N 28°28' W 016°14'0 0.0
2018-Sep-16 08:59N 28°28' W 016°14'0 0.0
2018-Sep-16 08:29N 28°28' W 016°14'0 0.0
2018-Sep-16 08:02N 28°28' W 016°14'0 0.0
2018-Sep-16 07:59N 28°28' W 016°14'0 0.0
2018-Sep-16 07:29N 28°28' W 016°14'0 0.0
2018-Sep-16 07:02N 28°28' W 016°14'0 0.0
2018-Sep-16 06:59N 28°28' W 016°14'0 0.0
2018-Sep-16 06:29N 28°28' W 016°14'0 0.1
2018-Sep-16 06:03N 28°28' W 016°14'0 1.7
2018-Sep-16 06:00N 28°29' W 016°14'3 6.3
2018-Sep-16 05:30N 28°27' W 016°11'4 9.1
2018-Sep-16 05:03N 28°25' W 016°07'0 8.8
2018-Sep-16 05:00N 28°25' W 016°07'5 9.2
2018-Sep-16 04:30N 28°28' W 016°02'4 9.3
2018-Sep-16 04:03N 28°31' W 015°59'0 9.1
2018-Sep-16 04:00N 28°31' W 015°59'4 8.7
2018-Sep-16 03:30N 28°35' W 015°55'4 8.8
2018-Sep-16 03:03N 28°38' W 015°53'0 8.8
2018-Sep-16 03:00N 28°38' W 015°52'5 9.2
2018-Sep-16 02:30N 28°41' W 015°49'4 8.7
2018-Sep-16 02:03N 28°40' W 015°44'0 8.9
2018-Sep-16 02:00N 28°40' W 015°44'4 8.9
2018-Sep-16 01:30N 28°38' W 015°40'4 9.4
2018-Sep-16 01:03N 28°35' W 015°36'0 9.4
2018-Sep-16 01:00N 28°35' W 015°35'5 9.4
2018-Sep-16 00:30N 28°32' W 015°31'4 9.3
2018-Sep-16 00:03N 28°30' W 015°27'0 9.2
2018-Sep-16 00:00N 28°30' W 015°26'5 9.4
2018-Sep-15 23:29N 28°27' W 015°22'510.4
2018-Sep-15 23:03N 28°24' W 015°18'010.4
2018-Sep-15 23:00N 28°24' W 015°17'5 9.7
2018-Sep-15 22:30N 28°20' W 015°15'510.2
2018-Sep-15 22:03N 28°15' W 015°15'010.3
2018-Sep-15 22:00N 28°15' W 015°15'510.2
2018-Sep-15 21:30N 28°09' W 015°14'1 2.3
2018-Sep-15 21:02N 28°08' W 015°15'0 1.7
2018-Sep-15 21:00N 28°08' W 015°15'1 1.9
2018-Sep-15 20:30N 28°09' W 015°16'1 2.0
2018-Sep-15 20:03N 28°09' W 015°17'0 2.1
2018-Sep-15 20:00N 28°09' W 015°17'1 2.1
2018-Sep-15 19:30N 28°09' W 015°18'1 2.2
2018-Sep-15 19:03N 28°09' W 015°19'0 2.2
2018-Sep-15 19:00N 28°09' W 015°19'1 1.9
2018-Sep-15 18:30N 28°10' W 015°20'2 4.7
2018-Sep-15 18:03N 28°08' W 015°22'112.2
2018-Sep-15 18:00N 28°08' W 015°22'3 5.6
2018-Sep-15 17:30N 28°08' W 015°25'0 0.6
2018-Sep-15 17:00N 28°08' W 015°26'0 0.0
2018-Sep-15 16:30N 28°08' W 015°26'0 0.0
2018-Sep-15 16:03N 28°08' W 015°26'0 0.0
2018-Sep-15 16:00N 28°08' W 015°26'0 0.0
2018-Sep-15 15:30N 28°08' W 015°26'0 0.0
2018-Sep-15 15:03N 28°08' W 015°26'0 0.0
2018-Sep-15 14:30N 28°08' W 015°26'0 0.0
2018-Sep-15 14:00N 28°08' W 015°26'0 0.0
2018-Sep-15 13:30N 28°08' W 015°26'0 0.0
2018-Sep-15 13:03N 28°08' W 015°26'0 0.0
2018-Sep-15 13:00N 28°08' W 015°26'0 0.0
2018-Sep-15 12:30N 28°08' W 015°26'0 0.0
2018-Sep-15 12:03N 28°08' W 015°26'0 0.0
2018-Sep-15 11:51N 28°08' W 015°26'0 0.0
2018-Sep-15 11:21N 28°08' W 015°26'0 0.0
2018-Sep-15 10:51N 28°08' W 015°26'0 0.0
2018-Sep-15 10:21N 28°08' W 015°26'0 0.0
2018-Sep-15 09:54N 28°08' W 015°26'0 0.0
2018-Sep-15 09:24N 28°08' W 015°26'0 0.0
2018-Sep-15 08:54N 28°08' W 015°26'0 0.0
2018-Sep-15 08:24N 28°08' W 015°26'0 0.0
2018-Sep-15 07:51N 28°08' W 015°26'0 0.0
2018-Sep-15 07:27N 28°08' W 015°26'0 0.0
2018-Sep-15 07:03N 28°08' W 015°25'0 0.5
2018-Sep-15 07:00N 28°08' W 015°25'3 5.2
2018-Sep-15 06:31N 28°07' W 015°23'4 9.1
2018-Sep-15 06:03N 28°10' W 015°20'0 9.1
2018-Sep-15 06:01N 28°11' W 015°20'5 8.9
2018-Sep-15 05:29N 28°15' W 015°17'4 8.6
2018-Sep-15 05:03N 28°18' W 015°14'0 8.9
2018-Sep-15 05:00N 28°18' W 015°14'4 8.5
2018-Sep-15 04:30N 28°21' W 015°11'4 8.6
2018-Sep-15 04:02N 28°24' W 015°07'0 8.7
2018-Sep-15 04:00N 28°24' W 015°07'5 8.8
2018-Sep-15 03:28N 28°26' W 015°02'4 8.9
2018-Sep-15 03:03N 28°28' W 014°59'0 9.0
2018-Sep-15 03:00N 28°28' W 014°58'4 9.0
2018-Sep-15 02:30N 28°30' W 014°54'4 8.9
2018-Sep-15 02:03N 28°32' W 014°50'0 8.9
2018-Sep-15 02:00N 28°32' W 014°49'4 8.8
2018-Sep-15 01:30N 28°34' W 014°45'4 8.7
2018-Sep-15 01:04N 28°36' W 014°41'1 8.6
2018-Sep-15 01:00N 28°36' W 014°40'5 8.8
2018-Sep-15 00:28N 28°38' W 014°35'4 8.9
2018-Sep-15 00:03N 28°40' W 014°32'1 8.9
2018-Sep-14 23:59N 28°40' W 014°31'5 8.8
2018-Sep-14 23:22N 28°42' W 014°25'3 8.7
2018-Sep-14 23:02N 28°44' W 014°23'0 8.7
2018-Sep-14 23:00N 28°44' W 014°22'4 8.8
2018-Sep-14 22:30N 28°45' W 014°18'4 8.7
2018-Sep-14 22:02N 28°46' W 014°13'1 8.6
2018-Sep-14 21:58N 28°46' W 014°12'4 8.5
2018-Sep-14 21:30N 28°47' W 014°08'4 8.9
2018-Sep-14 21:03N 28°48' W 014°04'0 9.0
2018-Sep-14 21:00N 28°48' W 014°03'4 9.0
2018-Sep-14 20:31N 28°48' W 013°58'  

Dump ship's entire track history